sensor_id;sensor_type;location;lat;lon;timestamp;temperature;humidity
68801;SHT31;55784;50.734;7.086;2023-02-28T00:01:13;0.22;76.55
68801;SHT31;55784;50.734;7.086;2023-02-28T00:03:40;0.28;76.72
68801;SHT31;55784;50.734;7.086;2023-02-28T00:06:09;0.30;76.67
68801;SHT31;55784;50.734;7.086;2023-02-28T00:08:37;0.35;76.57
68801;SHT31;55784;50.734;7.086;2023-02-28T00:11:04;0.39;76.49
68801;SHT31;55784;50.734;7.086;2023-02-28T00:13:30;0.38;76.55
68801;SHT31;55784;50.734;7.086;2023-02-28T00:16:07;0.32;76.66
68801;SHT31;55784;50.734;7.086;2023-02-28T00:18:33;0.30;76.83
68801;SHT31;55784;50.734;7.086;2023-02-28T00:20:58;0.26;76.96
68801;SHT31;55784;50.734;7.086;2023-02-28T00:23:25;0.19;77.26
68801;SHT31;55784;50.734;7.086;2023-02-28T00:25:50;0.16;77.18
68801;SHT31;55784;50.734;7.086;2023-02-28T00:28:16;0.16;77.37
68801;SHT31;55784;50.734;7.086;2023-02-28T00:30:41;0.20;77.18
68801;SHT31;55784;50.734;7.086;2023-02-28T00:33:06;0.20;77.18
68801;SHT31;55784;50.734;7.086;2023-02-28T00:35:31;0.12;77.39
68801;SHT31;55784;50.734;7.086;2023-02-28T00:37:57;0.12;77.35
68801;SHT31;55784;50.734;7.086;2023-02-28T00:40:22;0.25;76.98
68801;SHT31;55784;50.734;7.086;2023-02-28T00:42:53;0.20;77.09
68801;SHT31;55784;50.734;7.086;2023-02-28T00:45:18;0.20;77.11
68801;SHT31;55784;50.734;7.086;2023-02-28T00:47:44;0.23;77.12
68801;SHT31;55784;50.734;7.086;2023-02-28T00:50:11;0.18;77.11
68801;SHT31;55784;50.734;7.086;2023-02-28T00:52:39;0.16;77.19
68801;SHT31;55784;50.734;7.086;2023-02-28T00:55:05;0.18;77.22
68801;SHT31;55784;50.734;7.086;2023-02-28T00:57:30;0.15;77.11
68801;SHT31;55784;50.734;7.086;2023-02-28T00:59:55;0.15;77.05
68801;SHT31;55784;50.734;7.086;2023-02-28T01:02:22;0.08;77.32
68801;SHT31;55784;50.734;7.086;2023-02-28T01:04:47;0.08;77.28
68801;SHT31;55784;50.734;7.086;2023-02-28T01:07:12;0.03;77.45
68801;SHT31;55784;50.734;7.086;2023-02-28T01:09:39;0.06;77.59
68801;SHT31;55784;50.734;7.086;2023-02-28T01:12:06;0.01;77.70
68801;SHT31;55784;50.734;7.086;2023-02-28T01:14:32;-0.03;77.86
68801;SHT31;55784;50.734;7.086;2023-02-28T01:16:57;-0.12;78.00
68801;SHT31;55784;50.734;7.086;2023-02-28T01:19:22;-0.22;78.34
68801;SHT31;55784;50.734;7.086;2023-02-28T01:21:48;-0.33;78.55
68801;SHT31;55784;50.734;7.086;2023-02-28T01:24:13;-0.26;78.94
68801;SHT31;55784;50.734;7.086;2023-02-28T01:26:38;-0.23;78.77
68801;SHT31;55784;50.734;7.086;2023-02-28T01:29:04;-0.22;78.62
68801;SHT31;55784;50.734;7.086;2023-02-28T01:31:29;-0.21;78.53
68801;SHT31;55784;50.734;7.086;2023-02-28T01:33:54;-0.21;78.64
68801;SHT31;55784;50.734;7.086;2023-02-28T01:36:22;-0.26;78.78
68801;SHT31;55784;50.734;7.086;2023-02-28T01:38:48;-0.32;78.92
68801;SHT31;55784;50.734;7.086;2023-02-28T01:41:23;-0.29;78.93
68801;SHT31;55784;50.734;7.086;2023-02-28T01:46:14;-0.21;78.59
68801;SHT31;55784;50.734;7.086;2023-02-28T01:48:42;-0.16;78.39
68801;SHT31;55784;50.734;7.086;2023-02-28T01:51:14;-0.29;78.69
68801;SHT31;55784;50.734;7.086;2023-02-28T01:53:46;-0.36;78.92
68801;SHT31;55784;50.734;7.086;2023-02-28T01:56:13;-0.46;79.08
68801;SHT31;55784;50.734;7.086;2023-02-28T01:58:46;-0.44;79.28
68801;SHT31;55784;50.734;7.086;2023-02-28T02:01:12;-0.26;78.60
68801;SHT31;55784;50.734;7.086;2023-02-28T02:04:04;-0.25;78.56
68801;SHT31;55784;50.734;7.086;2023-02-28T02:06:49;-0.26;78.66
68801;SHT31;55784;50.734;7.086;2023-02-28T02:09:14;-0.33;78.65
68801;SHT31;55784;50.734;7.086;2023-02-28T02:11:42;-0.33;78.53
68801;SHT31;55784;50.734;7.086;2023-02-28T02:14:22;-0.28;78.64
68801;SHT31;55784;50.734;7.086;2023-02-28T02:17:16;-0.37;78.79
68801;SHT31;55784;50.734;7.086;2023-02-28T02:20:00;-0.43;79.12
68801;SHT31;55784;50.734;7.086;2023-02-28T02:23:11;-0.56;79.12
68801;SHT31;55784;50.734;7.086;2023-02-28T02:25:45;-0.76;79.43
68801;SHT31;55784;50.734;7.086;2023-02-28T02:28:36;-0.91;79.85
68801;SHT31;55784;50.734;7.086;2023-02-28T02:36:36;-1.01;81.08
68801;SHT31;55784;50.734;7.086;2023-02-28T02:39:12;-0.97;81.05
68801;SHT31;55784;50.734;7.086;2023-02-28T02:41:40;-1.04;81.21
68801;SHT31;55784;50.734;7.086;2023-02-28T02:44:21;-1.12;81.23
68801;SHT31;55784;50.734;7.086;2023-02-28T02:46:48;-1.12;81.76
68801;SHT31;55784;50.734;7.086;2023-02-28T02:49:24;-1.14;81.67
68801;SHT31;55784;50.734;7.086;2023-02-28T02:51:51;-1.19;82.11
68801;SHT31;55784;50.734;7.086;2023-02-28T02:54:21;-1.21;82.41
68801;SHT31;55784;50.734;7.086;2023-02-28T02:56:48;-1.27;82.13
68801;SHT31;55784;50.734;7.086;2023-02-28T02:59:17;-1.41;83.21
68801;SHT31;55784;50.734;7.086;2023-02-28T03:01:49;-1.35;83.16
68801;SHT31;55784;50.734;7.086;2023-02-28T03:04:20;-1.35;83.07
68801;SHT31;55784;50.734;7.086;2023-02-28T03:06:46;-1.44;83.70
68801;SHT31;55784;50.734;7.086;2023-02-28T03:09:12;-1.49;83.74
68801;SHT31;55784;50.734;7.086;2023-02-28T03:11:38;-1.55;84.14
68801;SHT31;55784;50.734;7.086;2023-02-28T03:14:30;-1.49;83.88
68801;SHT31;55784;50.734;7.086;2023-02-28T03:22:07;-1.49;83.76
68801;SHT31;55784;50.734;7.086;2023-02-28T03:29:51;-1.63;84.49
68801;SHT31;55784;50.734;7.086;2023-02-28T03:32:27;-1.56;84.41
68801;SHT31;55784;50.734;7.086;2023-02-28T03:35:14;-1.62;84.56
68801;SHT31;55784;50.734;7.086;2023-02-28T03:37:48;-1.60;84.54
68801;SHT31;55784;50.734;7.086;2023-02-28T03:40:17;-1.56;84.33
68801;SHT31;55784;50.734;7.086;2023-02-28T03:42:48;-1.60;84.64
68801;SHT31;55784;50.734;7.086;2023-02-28T03:45:25;-1.69;84.56
68801;SHT31;55784;50.734;7.086;2023-02-28T03:47:55;-1.63;84.64
68801;SHT31;55784;50.734;7.086;2023-02-28T03:50:31;-1.65;84.33
68801;SHT31;55784;50.734;7.086;2023-02-28T03:53:04;-1.55;83.67
68801;SHT31;55784;50.734;7.086;2023-02-28T03:55:38;-1.55;83.57
68801;SHT31;55784;50.734;7.086;2023-02-28T04:00:55;-1.63;83.37
68801;SHT31;55784;50.734;7.086;2023-02-28T04:03:22;-1.72;83.48
68801;SHT31;55784;50.734;7.086;2023-02-28T04:05:55;-1.75;83.39
68801;SHT31;55784;50.734;7.086;2023-02-28T04:08:22;-1.75;83.97
68801;SHT31;55784;50.734;7.086;2023-02-28T04:10:53;-1.66;83.52
68801;SHT31;55784;50.734;7.086;2023-02-28T04:13:21;-1.62;83.29
68801;SHT31;55784;50.734;7.086;2023-02-28T04:15:46;-1.72;83.28
68801;SHT31;55784;50.734;7.086;2023-02-28T04:18:11;-1.79;83.86
68801;SHT31;55784;50.734;7.086;2023-02-28T04:20:37;-1.76;83.29
68801;SHT31;55784;50.734;7.086;2023-02-28T04:23:02;-1.75;83.04
68801;SHT31;55784;50.734;7.086;2023-02-28T04:25:27;-1.82;83.01
68801;SHT31;55784;50.734;7.086;2023-02-28T04:27:52;-1.83;83.17
68801;SHT31;55784;50.734;7.086;2023-02-28T04:30:18;-1.83;83.21
68801;SHT31;55784;50.734;7.086;2023-02-28T04:32:43;-1.82;83.31
68801;SHT31;55784;50.734;7.086;2023-02-28T04:35:08;-1.78;83.50
68801;SHT31;55784;50.734;7.086;2023-02-28T04:37:34;-1.85;83.70
68801;SHT31;55784;50.734;7.086;2023-02-28T04:40:02;-1.92;83.73
68801;SHT31;55784;50.734;7.086;2023-02-28T04:42:27;-1.89;83.65
68801;SHT31;55784;50.734;7.086;2023-02-28T04:45:00;-2.00;83.94
68801;SHT31;55784;50.734;7.086;2023-02-28T04:47:25;-2.04;84.05
68801;SHT31;55784;50.734;7.086;2023-02-28T04:49:50;-2.14;84.25
68801;SHT31;55784;50.734;7.086;2023-02-28T04:52:16;-2.21;84.61
68801;SHT31;55784;50.734;7.086;2023-02-28T04:54:41;-2.20;84.92
68801;SHT31;55784;50.734;7.086;2023-02-28T04:57:06;-2.17;85.01
68801;SHT31;55784;50.734;7.086;2023-02-28T04:59:32;-2.13;84.86
68801;SHT31;55784;50.734;7.086;2023-02-28T05:01:57;-2.07;84.55
68801;SHT31;55784;50.734;7.086;2023-02-28T05:04:23;-1.87;83.70
68801;SHT31;55784;50.734;7.086;2023-02-28T05:06:48;-1.72;82.50
68801;SHT31;55784;50.734;7.086;2023-02-28T05:09:13;-1.72;82.05
68801;SHT31;55784;50.734;7.086;2023-02-28T05:11:39;-1.65;81.72
68801;SHT31;55784;50.734;7.086;2023-02-28T05:14:08;-1.62;81.18
68801;SHT31;55784;50.734;7.086;2023-02-28T05:16:35;-1.69;81.06
68801;SHT31;55784;50.734;7.086;2023-02-28T05:19:00;-1.78;80.92
68801;SHT31;55784;50.734;7.086;2023-02-28T05:21:29;-1.82;80.81
68801;SHT31;55784;50.734;7.086;2023-02-28T05:23:56;-1.58;79.92
68801;SHT31;55784;50.734;7.086;2023-02-28T05:26:22;-1.63;79.84
68801;SHT31;55784;50.734;7.086;2023-02-28T05:28:48;-1.54;79.48
68801;SHT31;55784;50.734;7.086;2023-02-28T05:31:14;-1.51;79.35
68801;SHT31;55784;50.734;7.086;2023-02-28T05:33:40;-1.55;79.10
68801;SHT31;55784;50.734;7.086;2023-02-28T05:36:06;-1.66;79.75
68801;SHT31;55784;50.734;7.086;2023-02-28T05:38:31;-1.76;80.23
68801;SHT31;55784;50.734;7.086;2023-02-28T05:40:57;-1.76;80.39
68801;SHT31;55784;50.734;7.086;2023-02-28T05:43:23;-1.80;80.47
68801;SHT31;55784;50.734;7.086;2023-02-28T05:45:48;-1.86;80.74
68801;SHT31;55784;50.734;7.086;2023-02-28T05:48:13;-1.97;80.94
68801;SHT31;55784;50.734;7.086;2023-02-28T05:50:39;-2.03;81.23
68801;SHT31;55784;50.734;7.086;2023-02-28T05:53:05;-1.97;81.09
68801;SHT31;55784;50.734;7.086;2023-02-28T05:55:33;-1.99;81.08
68801;SHT31;55784;50.734;7.086;2023-02-28T05:58:03;-2.02;81.26
68801;SHT31;55784;50.734;7.086;2023-02-28T06:00:29;-2.00;80.88
68801;SHT31;55784;50.734;7.086;2023-02-28T06:02:56;-1.99;81.33
68801;SHT31;55784;50.734;7.086;2023-02-28T06:05:25;-2.04;81.13
68801;SHT31;55784;50.734;7.086;2023-02-28T06:07:50;-1.89;80.39
68801;SHT31;55784;50.734;7.086;2023-02-28T06:10:15;-1.68;78.97
68801;SHT31;55784;50.734;7.086;2023-02-28T06:12:41;-1.59;78.75
68801;SHT31;55784;50.734;7.086;2023-02-28T06:15:09;-1.49;78.42
68801;SHT31;55784;50.734;7.086;2023-02-28T06:17:36;-1.42;78.05
68801;SHT31;55784;50.734;7.086;2023-02-28T06:20:02;-1.49;78.11
68801;SHT31;55784;50.734;7.086;2023-02-28T06:22:35;-1.48;78.17
68801;SHT31;55784;50.734;7.086;2023-02-28T06:28:17;-1.37;77.68
68801;SHT31;55784;50.734;7.086;2023-02-28T06:30:42;-1.37;77.55
68801;SHT31;55784;50.734;7.086;2023-02-28T06:33:08;-1.34;77.58
68801;SHT31;55784;50.734;7.086;2023-02-28T06:35:33;-1.22;77.00
68801;SHT31;55784;50.734;7.086;2023-02-28T06:37:58;-1.22;77.09
68801;SHT31;55784;50.734;7.086;2023-02-28T06:40:24;-1.22;76.94
68801;SHT31;55784;50.734;7.086;2023-02-28T06:42:49;-1.18;76.94
68801;SHT31;55784;50.734;7.086;2023-02-28T06:45:18;-1.12;76.80
68801;SHT31;55784;50.734;7.086;2023-02-28T06:51:13;-0.97;75.78
68801;SHT31;55784;50.734;7.086;2023-02-28T06:53:48;-0.91;75.75
68801;SHT31;55784;50.734;7.086;2023-02-28T06:56:29;-0.90;75.36
68801;SHT31;55784;50.734;7.086;2023-02-28T06:59:00;-0.94;75.57
68801;SHT31;55784;50.734;7.086;2023-02-28T07:01:48;-0.86;75.21
68801;SHT31;55784;50.734;7.086;2023-02-28T07:04:14;-0.88;75.15
68801;SHT31;55784;50.734;7.086;2023-02-28T07:06:42;-0.98;75.39
68801;SHT31;55784;50.734;7.086;2023-02-28T07:09:10;-0.96;75.24
68801;SHT31;55784;50.734;7.086;2023-02-28T07:11:40;-0.86;74.42
68801;SHT31;55784;50.734;7.086;2023-02-28T07:14:08;-0.86;75.05
68801;SHT31;55784;50.734;7.086;2023-02-28T07:16:35;-0.86;74.88
68801;SHT31;55784;50.734;7.086;2023-02-28T07:19:11;-0.84;74.53
68801;SHT31;55784;50.734;7.086;2023-02-28T07:21:39;-0.86;75.11
68801;SHT31;55784;50.734;7.086;2023-02-28T07:24:05;-0.84;74.86
68801;SHT31;55784;50.734;7.086;2023-02-28T07:26:33;-0.84;74.81
68801;SHT31;55784;50.734;7.086;2023-02-28T07:28:59;-0.77;74.39
68801;SHT31;55784;50.734;7.086;2023-02-28T07:31:24;-0.77;74.17
68801;SHT31;55784;50.734;7.086;2023-02-28T07:33:50;-0.64;74.15
68801;SHT31;55784;50.734;7.086;2023-02-28T07:36:19;-0.64;74.08
68801;SHT31;55784;50.734;7.086;2023-02-28T07:38:46;-0.62;73.99
68801;SHT31;55784;50.734;7.086;2023-02-28T07:41:21;-0.57;73.65
68801;SHT31;55784;50.734;7.086;2023-02-28T07:43:48;-0.59;73.36
68801;SHT31;55784;50.734;7.086;2023-02-28T07:46:15;-0.57;73.35
68801;SHT31;55784;50.734;7.086;2023-02-28T07:48:41;-0.57;73.30
68801;SHT31;55784;50.734;7.086;2023-02-28T07:51:07;-0.52;73.39
68801;SHT31;55784;50.734;7.086;2023-02-28T07:53:32;-0.44;73.40
68801;SHT31;55784;50.734;7.086;2023-02-28T07:55:59;-0.40;73.43
68801;SHT31;55784;50.734;7.086;2023-02-28T07:58:26;-0.37;72.61
68801;SHT31;55784;50.734;7.086;2023-02-28T08:00:55;-0.29;72.72
68801;SHT31;55784;50.734;7.086;2023-02-28T08:03:25;-0.08;71.37
68801;SHT31;55784;50.734;7.086;2023-02-28T08:05:51;0.03;70.40
68801;SHT31;55784;50.734;7.086;2023-02-28T08:08:17;0.01;70.30
68801;SHT31;55784;50.734;7.086;2023-02-28T08:10:43;0.03;70.35
68801;SHT31;55784;50.734;7.086;2023-02-28T08:13:08;0.16;70.08
68801;SHT31;55784;50.734;7.086;2023-02-28T08:15:42;0.29;69.18
68801;SHT31;55784;50.734;7.086;2023-02-28T08:18:21;0.48;68.18
68801;SHT31;55784;50.734;7.086;2023-02-28T08:21:10;0.60;68.07
68801;SHT31;55784;50.734;7.086;2023-02-28T08:23:36;0.73;68.01
68801;SHT31;55784;50.734;7.086;2023-02-28T08:26:04;0.83;67.69
68801;SHT31;55784;50.734;7.086;2023-02-28T08:28:34;0.94;66.44
68801;SHT31;55784;50.734;7.086;2023-02-28T08:30:59;1.09;66.54
68801;SHT31;55784;50.734;7.086;2023-02-28T08:34:13;1.24;65.15
68801;SHT31;55784;50.734;7.086;2023-02-28T08:36:41;1.35;63.52
68801;SHT31;55784;50.734;7.086;2023-02-28T08:39:44;1.38;63.32
68801;SHT31;55784;50.734;7.086;2023-02-28T08:42:22;1.51;63.14
68801;SHT31;55784;50.734;7.086;2023-02-28T08:45:01;1.59;62.49
68801;SHT31;55784;50.734;7.086;2023-02-28T08:50:03;1.58;61.37
68801;SHT31;55784;50.734;7.086;2023-02-28T08:52:54;1.69;61.80
68801;SHT31;55784;50.734;7.086;2023-02-28T08:55:35;1.79;61.51
68801;SHT31;55784;50.734;7.086;2023-02-28T08:58:22;1.87;61.42
68801;SHT31;55784;50.734;7.086;2023-02-28T09:00:50;1.95;60.12
68801;SHT31;55784;50.734;7.086;2023-02-28T09:03:16;1.90;60.31
68801;SHT31;55784;50.734;7.086;2023-02-28T09:05:59;2.00;58.54
68801;SHT31;55784;50.734;7.086;2023-02-28T09:08:27;2.07;58.92
68801;SHT31;55784;50.734;7.086;2023-02-28T09:10:56;1.86;58.95
68801;SHT31;55784;50.734;7.086;2023-02-28T09:13:26;2.03;58.68
68801;SHT31;55784;50.734;7.086;2023-02-28T09:16:03;2.06;57.58
68801;SHT31;55784;50.734;7.086;2023-02-28T09:18:34;2.21;56.58
68801;SHT31;55784;50.734;7.086;2023-02-28T09:21:07;2.17;57.00
68801;SHT31;55784;50.734;7.086;2023-02-28T09:23:44;2.23;56.30
68801;SHT31;55784;50.734;7.086;2023-02-28T09:26:24;2.27;54.94
68801;SHT31;55784;50.734;7.086;2023-02-28T09:29:05;2.41;55.34
68801;SHT31;55784;50.734;7.086;2023-02-28T09:35:15;2.62;54.68
68801;SHT31;55784;50.734;7.086;2023-02-28T09:37:52;2.58;53.66
68801;SHT31;55784;50.734;7.086;2023-02-28T09:40:20;2.70;54.01
68801;SHT31;55784;50.734;7.086;2023-02-28T09:42:51;2.80;53.93
68801;SHT31;55784;50.734;7.086;2023-02-28T09:45:36;2.91;54.37
68801;SHT31;55784;50.734;7.086;2023-02-28T09:50:48;2.98;52.68
68801;SHT31;55784;50.734;7.086;2023-02-28T09:53:32;3.08;53.08
68801;SHT31;55784;50.734;7.086;2023-02-28T09:56:10;3.06;52.57
68801;SHT31;55784;50.734;7.086;2023-02-28T10:01:15;3.16;51.35
68801;SHT31;55784;50.734;7.086;2023-02-28T10:03:59;3.33;51.23
68801;SHT31;55784;50.734;7.086;2023-02-28T10:06:33;3.43;51.28
68801;SHT31;55784;50.734;7.086;2023-02-28T10:12:30;3.64;49.47
68801;SHT31;55784;50.734;7.086;2023-02-28T10:46:50;4.19;46.41
68801;SHT31;55784;50.734;7.086;2023-02-28T10:49:27;4.25;46.17
68801;SHT31;55784;50.734;7.086;2023-02-28T10:51:57;4.34;46.27
68801;SHT31;55784;50.734;7.086;2023-02-28T10:54:42;4.25;45.59
68801;SHT31;55784;50.734;7.086;2023-02-28T10:57:22;4.21;46.18
68801;SHT31;55784;50.734;7.086;2023-02-28T11:02:41;4.49;46.01
68801;SHT31;55784;50.734;7.086;2023-02-28T11:05:31;4.35;44.67
68801;SHT31;55784;50.734;7.086;2023-02-28T11:08:03;4.24;45.30
68801;SHT31;55784;50.734;7.086;2023-02-28T11:10:31;4.31;45.31
68801;SHT31;55784;50.734;7.086;2023-02-28T11:13:00;4.29;45.38
68801;SHT31;55784;50.734;7.086;2023-02-28T11:15:36;4.38;45.86
68801;SHT31;55784;50.734;7.086;2023-02-28T11:21:32;4.38;45.05
68801;SHT31;55784;50.734;7.086;2023-02-28T11:33:21;4.44;44.85
68801;SHT31;55784;50.734;7.086;2023-02-28T11:36:25;4.32;44.88
68801;SHT31;55784;50.734;7.086;2023-02-28T11:39:01;4.49;45.01
68801;SHT31;55784;50.734;7.086;2023-02-28T11:44:37;4.46;45.38
68801;SHT31;55784;50.734;7.086;2023-02-28T11:59:29;4.83;43.58
68801;SHT31;55784;50.734;7.086;2023-02-28T12:02:26;4.96;44.43
68801;SHT31;55784;50.734;7.086;2023-02-28T12:05:10;5.06;44.13
68801;SHT31;55784;50.734;7.086;2023-02-28T12:11:01;5.21;44.11
68801;SHT31;55784;50.734;7.086;2023-02-28T12:28:39;5.33;42.70
68801;SHT31;55784;50.734;7.086;2023-02-28T12:31:30;5.52;43.28
68801;SHT31;55784;50.734;7.086;2023-02-28T12:34:01;5.61;43.28
68801;SHT31;55784;50.734;7.086;2023-02-28T12:36:30;5.65;42.57
68801;SHT31;55784;50.734;7.086;2023-02-28T12:42:28;5.66;43.24
68801;SHT31;55784;50.734;7.086;2023-02-28T12:44:59;5.81;42.87
68801;SHT31;55784;50.734;7.086;2023-02-28T12:47:26;5.76;42.00
68801;SHT31;55784;50.734;7.086;2023-02-28T12:49:55;5.62;42.39
68801;SHT31;55784;50.734;7.086;2023-02-28T12:52:53;5.72;42.61
68801;SHT31;55784;50.734;7.086;2023-02-28T12:55:33;5.72;42.49
68801;SHT31;55784;50.734;7.086;2023-02-28T12:58:09;5.65;42.59
68801;SHT31;55784;50.734;7.086;2023-02-28T13:00:38;5.78;43.11
68801;SHT31;55784;50.734;7.086;2023-02-28T13:09:14;6.03;43.22
68801;SHT31;55784;50.734;7.086;2023-02-28T13:11:47;6.01;42.70
68801;SHT31;55784;50.734;7.086;2023-02-28T13:33:24;5.66;44.74
68801;SHT31;55784;50.734;7.086;2023-02-28T13:38:48;5.82;43.54
68801;SHT31;55784;50.734;7.086;2023-02-28T14:19:25;6.64;45.94
68801;SHT31;55784;50.734;7.086;2023-02-28T14:25:33;6.70;43.36
68801;SHT31;55784;50.734;7.086;2023-02-28T14:28:19;6.64;43.75
68801;SHT31;55784;50.734;7.086;2023-02-28T14:33:26;6.58;46.06
68801;SHT31;55784;50.734;7.086;2023-02-28T14:36:14;6.49;43.41
68801;SHT31;55784;50.734;7.086;2023-02-28T14:38:50;6.51;43.82
68801;SHT31;55784;50.734;7.086;2023-02-28T14:41:39;6.47;44.09
68801;SHT31;55784;50.734;7.086;2023-02-28T14:44:20;6.49;44.57
68801;SHT31;55784;50.734;7.086;2023-02-28T14:46:50;6.57;45.35
68801;SHT31;55784;50.734;7.086;2023-02-28T14:49:20;6.66;43.77
68801;SHT31;55784;50.734;7.086;2023-02-28T14:51:49;6.60;44.23
68801;SHT31;55784;50.734;7.086;2023-02-28T14:54:16;6.58;43.37
68801;SHT31;55784;50.734;7.086;2023-02-28T14:56:48;6.56;43.72
68801;SHT31;55784;50.734;7.086;2023-02-28T14:59:25;6.50;44.14
68801;SHT31;55784;50.734;7.086;2023-02-28T15:01:51;6.46;43.82
68801;SHT31;55784;50.734;7.086;2023-02-28T15:04:25;6.37;43.84
68801;SHT31;55784;50.734;7.086;2023-02-28T15:07:13;6.40;44.90
68801;SHT31;55784;50.734;7.086;2023-02-28T15:09:38;6.41;44.50
68801;SHT31;55784;50.734;7.086;2023-02-28T15:12:04;6.36;44.09
68801;SHT31;55784;50.734;7.086;2023-02-28T15:14:31;6.33;44.38
68801;SHT31;55784;50.734;7.086;2023-02-28T15:17:00;6.32;44.61
68801;SHT31;55784;50.734;7.086;2023-02-28T15:19:29;6.20;44.09
68801;SHT31;55784;50.734;7.086;2023-02-28T15:22:07;6.23;45.17
68801;SHT31;55784;50.734;7.086;2023-02-28T15:24:39;6.20;45.16
68801;SHT31;55784;50.734;7.086;2023-02-28T15:27:12;6.22;45.35
68801;SHT31;55784;50.734;7.086;2023-02-28T15:29:48;6.20;45.07
68801;SHT31;55784;50.734;7.086;2023-02-28T15:32:27;6.17;45.24
68801;SHT31;55784;50.734;7.086;2023-02-28T15:34:54;6.12;45.10
68801;SHT31;55784;50.734;7.086;2023-02-28T15:41:03;6.13;45.53
68801;SHT31;55784;50.734;7.086;2023-02-28T15:43:23;6.19;45.21
68801;SHT31;55784;50.734;7.086;2023-02-28T15:46:10;6.12;44.98
68801;SHT31;55784;50.734;7.086;2023-02-28T15:48:53;6.08;45.44
68801;SHT31;55784;50.734;7.086;2023-02-28T15:51:33;6.03;45.53
68801;SHT31;55784;50.734;7.086;2023-02-28T15:54:04;6.08;45.14
68801;SHT31;55784;50.734;7.086;2023-02-28T15:56:33;6.08;45.30
68801;SHT31;55784;50.734;7.086;2023-02-28T15:59:06;6.05;45.65
68801;SHT31;55784;50.734;7.086;2023-02-28T16:01:37;6.03;45.47
68801;SHT31;55784;50.734;7.086;2023-02-28T16:04:14;5.98;45.85
68801;SHT31;55784;50.734;7.086;2023-02-28T16:09:31;5.89;46.11
68801;SHT31;55784;50.734;7.086;2023-02-28T16:12:00;5.88;45.81
68801;SHT31;55784;50.734;7.086;2023-02-28T16:14:30;5.91;45.96
68801;SHT31;55784;50.734;7.086;2023-02-28T16:17:05;5.85;46.13
68801;SHT31;55784;50.734;7.086;2023-02-28T16:19:31;5.79;46.40
68801;SHT31;55784;50.734;7.086;2023-02-28T16:21:57;5.74;46.70
68801;SHT31;55784;50.734;7.086;2023-02-28T16:24:23;5.78;46.31
68801;SHT31;55784;50.734;7.086;2023-02-28T16:26:50;5.71;46.45
68801;SHT31;55784;50.734;7.086;2023-02-28T16:29:27;5.68;46.74
68801;SHT31;55784;50.734;7.086;2023-02-28T16:31:55;5.59;47.04
68801;SHT31;55784;50.734;7.086;2023-02-28T16:34:50;5.48;47.22
68801;SHT31;55784;50.734;7.086;2023-02-28T16:37:27;5.41;47.25
68801;SHT31;55784;50.734;7.086;2023-02-28T16:40:01;5.35;47.53
68801;SHT31;55784;50.734;7.086;2023-02-28T16:42:44;5.27;47.95
68801;SHT31;55784;50.734;7.086;2023-02-28T16:45:17;5.17;48.17
68801;SHT31;55784;50.734;7.086;2023-02-28T16:47:44;5.10;48.67
68801;SHT31;55784;50.734;7.086;2023-02-28T16:50:15;5.03;48.90
68801;SHT31;55784;50.734;7.086;2023-02-28T16:52:41;4.94;49.56
68801;SHT31;55784;50.734;7.086;2023-02-28T16:55:10;4.89;49.67
68801;SHT31;55784;50.734;7.086;2023-02-28T16:58:04;4.77;50.05
68801;SHT31;55784;50.734;7.086;2023-02-28T17:00:40;4.69;49.76
68801;SHT31;55784;50.734;7.086;2023-02-28T17:03:29;4.60;50.20
68801;SHT31;55784;50.734;7.086;2023-02-28T17:06:20;4.65;49.43
68801;SHT31;55784;50.734;7.086;2023-02-28T17:08:55;4.59;50.35
68801;SHT31;55784;50.734;7.086;2023-02-28T17:11:29;4.60;50.18
68801;SHT31;55784;50.734;7.086;2023-02-28T17:13:55;4.56;50.02
68801;SHT31;55784;50.734;7.086;2023-02-28T17:16:58;4.45;50.92
68801;SHT31;55784;50.734;7.086;2023-02-28T17:19:36;4.32;51.26
68801;SHT31;55784;50.734;7.086;2023-02-28T17:25:30;4.32;50.88
68801;SHT31;55784;50.734;7.086;2023-02-28T17:27:55;4.25;51.24
68801;SHT31;55784;50.734;7.086;2023-02-28T17:30:24;4.11;51.70
68801;SHT31;55784;50.734;7.086;2023-02-28T17:32:50;4.09;51.86
68801;SHT31;55784;50.734;7.086;2023-02-28T17:35:18;4.01;52.67
68801;SHT31;55784;50.734;7.086;2023-02-28T17:37:43;4.07;52.41
68801;SHT31;55784;50.734;7.086;2023-02-28T17:40:18;4.18;51.61
68801;SHT31;55784;50.734;7.086;2023-02-28T17:42:44;4.11;51.98
68801;SHT31;55784;50.734;7.086;2023-02-28T17:45:11;3.98;52.53
68801;SHT31;55784;50.734;7.086;2023-02-28T17:47:36;3.87;52.74
68801;SHT31;55784;50.734;7.086;2023-02-28T17:50:02;3.78;53.33
68801;SHT31;55784;50.734;7.086;2023-02-28T17:52:28;3.70;53.88
68801;SHT31;55784;50.734;7.086;2023-02-28T17:54:54;3.54;54.60
68801;SHT31;55784;50.734;7.086;2023-02-28T17:57:19;3.54;54.46
68801;SHT31;55784;50.734;7.086;2023-02-28T17:59:45;3.77;53.81
68801;SHT31;55784;50.734;7.086;2023-02-28T18:02:12;3.80;53.97
68801;SHT31;55784;50.734;7.086;2023-02-28T18:04:37;3.84;53.20
68801;SHT31;55784;50.734;7.086;2023-02-28T18:07:06;3.83;53.63
68801;SHT31;55784;50.734;7.086;2023-02-28T18:09:31;3.73;54.01
68801;SHT31;55784;50.734;7.086;2023-02-28T18:11:57;3.73;54.00
68801;SHT31;55784;50.734;7.086;2023-02-28T18:14:28;3.70;53.82
68801;SHT31;55784;50.734;7.086;2023-02-28T18:16:56;3.93;53.20
68801;SHT31;55784;50.734;7.086;2023-02-28T18:19:39;3.93;53.19
68801;SHT31;55784;50.734;7.086;2023-02-28T18:25:34;3.81;53.97
68801;SHT31;55784;50.734;7.086;2023-02-28T19:54:53;2.14;60.77
68801;SHT31;55784;50.734;7.086;2023-02-28T20:01:35;1.92;63.76
68801;SHT31;55784;50.734;7.086;2023-02-28T20:07:48;1.60;66.03
68801;SHT31;55784;50.734;7.086;2023-02-28T20:43:57;0.85;71.01
68801;SHT31;55784;50.734;7.086;2023-02-28T20:46:27;0.83;71.75
68801;SHT31;55784;50.734;7.086;2023-02-28T20:48:54;0.79;71.73
68801;SHT31;55784;50.734;7.086;2023-02-28T20:51:21;0.76;71.73
68801;SHT31;55784;50.734;7.086;2023-02-28T20:53:47;0.73;72.33
68801;SHT31;55784;50.734;7.086;2023-02-28T20:56:17;0.67;72.08
68801;SHT31;55784;50.734;7.086;2023-02-28T20:58:45;0.63;72.36
68801;SHT31;55784;50.734;7.086;2023-02-28T21:01:19;0.66;72.42
68801;SHT31;55784;50.734;7.086;2023-02-28T21:04:05;0.57;72.28
68801;SHT31;55784;50.734;7.086;2023-02-28T21:06:33;0.57;72.56
68801;SHT31;55784;50.734;7.086;2023-02-28T21:08:59;0.48;72.69
68801;SHT31;55784;50.734;7.086;2023-02-28T21:11:27;0.40;72.95
68801;SHT31;55784;50.734;7.086;2023-02-28T21:13:57;0.35;73.32
68801;SHT31;55784;50.734;7.086;2023-02-28T21:16:26;0.29;73.64
68801;SHT31;55784;50.734;7.086;2023-02-28T21:19:00;0.28;73.48
68801;SHT31;55784;50.734;7.086;2023-02-28T21:21:33;0.22;73.28
68801;SHT31;55784;50.734;7.086;2023-02-28T21:23:58;0.20;73.49
68801;SHT31;55784;50.734;7.086;2023-02-28T21:26:24;0.16;73.62
68801;SHT31;55784;50.734;7.086;2023-02-28T21:28:55;0.13;73.66
68801;SHT31;55784;50.734;7.086;2023-02-28T21:31:23;0.12;73.95
68801;SHT31;55784;50.734;7.086;2023-02-28T21:33:51;0.10;73.96
68801;SHT31;55784;50.734;7.086;2023-02-28T21:36:21;0.08;74.17
68801;SHT31;55784;50.734;7.086;2023-02-28T21:38:48;0.06;74.35
68801;SHT31;55784;50.734;7.086;2023-02-28T21:41:19;0.02;74.53
68801;SHT31;55784;50.734;7.086;2023-02-28T21:43:46;-0.08;74.48
68801;SHT31;55784;50.734;7.086;2023-02-28T21:46:14;-0.12;74.76